Time;durP1;ratioP1;P1;durP2;ratioP2;P2;SDS_P1;SDS_P2;PMS_P1;PMS_P2;Temp;Humidity;BMP_temperature;BMP_pressure;BME280_temperature;BME280_humidity;BME280_pressure;Samples;Min_cycle;Max_cycle;Signal;HPM_P1;HPM_P2
2022/01/02 00:04:07;;;;;;;17.60;14.10;;;;;;;5.54;92.66;100160.91;439176;1270;140748;-62
2022/01/02 00:14:17;;;;;;;14.10;10.60;;;;;;;5.37;92.68;100152.29;447467;1270;141370;-62
2022/01/02 00:24:24;;;;;;;17.00;11.30;;;;;;;5.21;92.78;100154.67;446649;1270;141397;-62
2022/01/02 00:34:30;;;;;;;15.80;10.60;;;;;;;5.15;92.91;100155.75;447241;1271;141616;-62
2022/01/02 00:44:53;;;;;;;14.10;11.30;;;;;;;5.08;92.98;100155.46;442008;1270;141441;-62
2022/01/02 00:55:00;;;;;;;14.60;10.50;;;;;;;5.00;93.08;100142.73;445615;1270;141995;-61
2022/01/02 01:05:08;;;;;;;13.50;11.10;;;;;;;4.98;93.13;100135.64;447446;1270;154089;-62
2022/01/02 01:15:14;;;;;;;18.00;11.70;;;;;;;5.01;93.26;100129.15;446409;1271;141841;-62
2022/01/02 01:25:21;;;;;;;15.00;9.80;;;;;;;4.98;93.34;100109.48;437808;1270;142017;-61
2022/01/02 01:35:27;;;;;;;15.10;10.70;;;;;;;4.97;93.35;100092.16;439186;1271;141650;-62
2022/01/02 01:45:33;;;;;;;17.60;13.10;;;;;;;4.90;93.51;100068.59;446676;1270;141630;-62
2022/01/02 01:55:40;;;;;;;16.40;12.00;;;;;;;4.90;93.49;100063.57;447279;1270;141139;-61
2022/01/02 02:05:46;;;;;;;18.70;13.40;;;;;;;4.95;93.91;100040.68;447067;1271;142055;-62
2022/01/02 02:15:53;;;;;;;18.80;13.30;;;;;;;4.94;93.78;100034.99;446586;1270;143990;-62
2022/01/02 02:25:59;;;;;;;20.00;14.30;;;;;;;4.95;93.89;100032.88;431265;1270;143240;-63
2022/01/02 02:36:05;;;;;;;22.50;15.90;;;;;;;4.97;94.21;100029.16;429293;1270;163146;-63
2022/01/02 02:56:44;;;;;;;29.70;18.20;;;;;;;4.98;94.57;99992.34;447393;1270;142200;-62
2022/01/02 03:06:51;;;;;;;29.30;19.40;;;;;;;5.02;94.64;99983.86;439443;1271;142144;-62
2022/01/02 03:16:56;;;;;;;31.40;19.00;;;;;;;5.07;94.89;99962.19;447349;1270;142072;-63
2022/01/02 03:27:02;;;;;;;31.90;18.40;;;;;;;5.08;94.89;99950.17;447184;1271;141466;-63
2022/01/02 03:37:08;;;;;;;27.70;16.90;;;;;;;5.12;95.00;99953.86;442334;1271;142004;-62
2022/01/02 03:47:14;;;;;;;30.80;19.20;;;;;;;5.16;95.36;99947.80;438984;1270;141512;-62
2022/01/02 03:57:19;;;;;;;37.40;21.20;;;;;;;5.21;95.43;99930.46;446679;1270;146915;-62
2022/01/02 04:07:25;;;;;;;30.90;20.20;;;;;;;5.24;95.51;99908.98;447418;1270;141593;-62
2022/01/02 04:17:32;;;;;;;33.90;19.20;;;;;;;5.30;95.66;99898.87;447335;1270;141889;-63
2022/01/02 04:27:38;;;;;;;33.20;20.90;;;;;;;5.38;95.78;99878.27;446626;1270;143792;-62
2022/01/02 04:37:43;;;;;;;38.20;19.10;;;;;;;5.45;95.86;99847.45;447343;1270;143902;-62
2022/01/02 04:47:49;;;;;;;30.10;18.40;;;;;;;5.60;96.14;99816.14;435398;1271;141352;-60
2022/01/02 04:57:55;;;;;;;29.00;16.20;;;;;;;5.75;96.73;99804.08;441387;1270;141597;-62
2022/01/02 05:08:01;;;;;;;21.80;14.30;;;;;;;5.97;97.07;99789.48;446754;1271;141912;-62
2022/01/02 05:18:06;;;;;;;25.80;14.90;;;;;;;6.17;97.23;99762.94;439624;1270;153995;-62
2022/01/02 05:28:12;;;;;;;23.90;14.70;;;;;;;6.35;97.60;99767.34;447318;1270;143462;-62
2022/01/02 05:38:19;;;;;;;25.40;16.40;;;;;;;6.54;97.60;99740.59;434176;1270;141703;-61
2022/01/02 05:48:25;;;;;;;23.20;15.40;;;;;;;6.70;97.81;99730.00;446331;1273;141732;-62
2022/01/02 05:58:32;;;;;;;21.50;13.70;;;;;;;6.84;97.79;99716.52;446702;1272;141603;-62
2022/01/02 06:08:39;;;;;;;21.70;14.30;;;;;;;6.96;97.84;99693.27;446867;1273;142706;-62
2022/01/02 06:18:44;;;;;;;21.80;15.90;;;;;;;7.05;97.63;99687.14;445830;1273;141888;-62
2022/01/02 06:28:53;;;;;;;20.50;14.60;;;;;;;7.13;97.74;99658.39;442489;1273;142162;-62
2022/01/02 06:38:59;;;;;;;19.70;13.50;;;;;;;7.14;97.60;99638.80;447041;1271;142479;-62
2022/01/02 06:49:05;;;;;;;22.50;15.10;;;;;;;7.12;97.44;99626.54;447007;1271;141968;-63
2022/01/02 06:59:26;;;;;;;23.80;16.20;;;;;;;7.01;96.98;99621.55;447129;1271;142090;-63
2022/01/02 07:09:32;;;;;;;23.10;14.80;;;;;;;6.92;97.09;99617.98;446304;1271;141484;-62
2022/01/02 07:19:38;;;;;;;27.10;17.30;;;;;;;6.87;97.03;99599.77;433615;1273;147179;-61
2022/01/02 07:29:44;;;;;;;28.60;18.40;;;;;;;6.86;97.03;99582.92;435128;1273;146252;-61
2022/01/02 07:39:50;;;;;;;25.80;18.40;;;;;;;6.92;97.20;99573.05;444959;1271;144395;-60
2022/01/02 07:49:56;;;;;;;24.10;15.60;;;;;;;7.02;97.10;99557.95;446591;1271;142040;-61
2022/01/02 08:00:02;;;;;;;24.30;17.80;;;;;;;7.13;97.01;99543.14;436909;1273;141677;-59
2022/01/02 08:10:13;;;;;;;21.50;15.40;;;;;;;7.19;96.85;99516.38;442041;1271;142053;-61
2022/01/02 08:20:19;;;;;;;20.60;14.70;;;;;;;7.34;96.75;99487.05;443594;1271;142117;-61
2022/01/02 08:30:25;;;;;;;18.80;13.10;;;;;;;7.66;96.71;99467.44;428920;1273;161810;-62
2022/01/02 08:40:31;;;;;;;16.80;13.60;;;;;;;8.13;96.52;99475.83;441824;1273;141375;-62
2022/01/02 08:50:37;;;;;;;18.40;12.50;;;;;;;9.27;95.48;99463.03;446693;1273;143973;-61
2022/01/02 09:00:43;;;;;;;15.20;10.80;;;;;;;9.45;93.06;99459.06;445958;1272;143137;-62
2022/01/02 09:10:49;;;;;;;15.90;11.70;;;;;;;9.49;92.14;99457.73;442453;1272;141788;-62
2022/01/02 09:20:54;;;;;;;18.00;12.80;;;;;;;9.62;91.29;99439.84;443505;1271;142465;-62
2022/01/02 09:31:00;;;;;;;19.10;13.10;;;;;;;9.91;90.86;99416.29;439798;1271;142609;-62
2022/01/02 09:41:07;;;;;;;17.50;11.70;;;;;;;10.21;89.51;99393.20;437835;1273;141480;-60
2022/01/02 09:51:12;;;;;;;17.00;10.40;;;;;;;10.06;88.42;99368.50;428617;1271;141673;-62
2022/01/02 10:01:20;;;;;;;16.50;10.70;;;;;;;9.88;88.13;99360.35;447272;1271;142262;-62
2022/01/02 10:11:26;;;;;;;15.40;8.60;;;;;;;9.60;87.68;99350.30;446951;1271;142560;-62
2022/01/02 10:21:34;;;;;;;12.30;9.00;;;;;;;9.65;87.69;99334.90;443647;1271;142633;-62
2022/01/02 10:31:41;;;;;;;11.20;7.70;;;;;;;9.42;86.90;99327.27;434942;1270;141258;-63
2022/01/02 10:41:50;;;;;;;14.20;8.40;;;;;;;9.20;86.79;99297.94;447136;1271;141882;-65
2022/01/02 10:52:14;;;;;;;13.80;9.20;;;;;;;9.11;86.84;99282.39;446532;1270;141751;-64
2022/01/02 11:02:20;;;;;;;11.30;9.30;;;;;;;9.27;87.06;99271.27;447122;1271;141830;-60
2022/01/02 11:12:26;;;;;;;20.40;12.20;;;;;;;9.57;86.80;99255.04;446593;1270;141905;-62
2022/01/02 11:22:39;;;;;;;15.60;10.30;;;;;;;9.79;85.94;99241.00;447191;1270;143761;-62
2022/01/02 11:32:59;;;;;;;11.40;7.60;;;;;;;9.91;85.65;99235.91;444334;1271;142493;-62
2022/01/02 11:43:06;;;;;;;13.80;7.80;;;;;;;9.91;84.86;99225.52;446834;1271;141321;-61
2022/01/02 11:53:26;;;;;;;9.00;6.70;;;;;;;9.71;84.46;99202.42;430959;1270;142327;-60
2022/01/02 12:03:53;;;;;;;8.70;6.40;;;;;;;9.62;84.62;99182.04;446536;1270;142452;-59
2022/01/02 12:14:06;;;;;;;9.90;7.70;;;;;;;9.57;84.58;99167.70;442970;1270;142176;-62
2022/01/02 12:24:12;;;;;;;11.00;7.40;;;;;;;9.47;84.21;99159.23;446544;1269;146019;-61
2022/01/02 12:34:20;;;;;;;8.40;6.60;;;;;;;9.23;83.99;99147.01;441956;1271;142110;-60
2022/01/02 12:44:29;;;;;;;10.60;6.20;;;;;;;9.02;84.02;99132.48;446903;1270;143864;-62
2022/01/02 12:54:38;;;;;;;11.20;6.90;;;;;;;8.91;84.16;99119.73;446404;1270;142855;-63
2022/01/02 13:04:46;;;;;;;12.20;7.30;;;;;;;8.75;84.11;99140.30;437646;1270;142273;-64
2022/01/02 13:14:53;;;;;;;8.70;6.80;;;;;;;8.59;84.27;99122.09;446831;1271;141425;-63
2022/01/02 13:25:04;;;;;;;10.30;7.30;;;;;;;8.43;84.56;99128.67;446623;1269;144479;-63
2022/01/02 13:35:12;;;;;;;10.90;6.80;;;;;;;8.35;84.74;99117.13;444534;1270;142041;-61
2022/01/02 13:45:24;;;;;;;6.80;5.60;;;;;;;8.29;84.70;99100.90;446701;1270;141947;-62
2022/01/02 13:55:37;;;;;;;11.10;8.90;;;;;;;8.22;84.90;99083.58;447345;1270;143393;-61
2022/01/02 14:05:48;;;;;;;15.50;8.10;;;;;;;8.12;85.00;99065.84;447161;1270;142925;-61
2022/01/02 14:16:03;;;;;;;10.40;7.00;;;;;;;8.03;85.27;99058.22;446743;1270;142173;-61
2022/01/02 14:26:09;;;;;;;11.00;8.00;;;;;;;7.94;85.25;99052.71;447065;1271;142938;-62
2022/01/02 14:36:14;;;;;;;9.90;6.70;;;;;;;7.88;85.43;99047.16;445928;1272;142098;-61
2022/01/02 14:46:21;;;;;;;11.20;8.30;;;;;;;7.87;85.54;99038.67;446825;1271;142021;-62
2022/01/02 14:56:27;;;;;;;15.10;9.30;;;;;;;7.83;85.56;99013.98;447329;1270;141974;-62
2022/01/02 15:06:33;;;;;;;15.20;10.20;;;;;;;7.80;85.84;99003.48;433808;1270;142626;-64
2022/01/02 15:16:57;;;;;;;13.90;8.50;;;;;;;7.77;85.82;99002.49;432767;1270;142486;-62
2022/01/02 15:27:02;;;;;;;11.80;8.30;;;;;;;7.73;86.09;99007.94;446673;1271;141951;-62
2022/01/02 15:37:20;;;;;;;15.60;10.60;;;;;;;7.72;86.35;98998.09;447328;1270;143167;-62
2022/01/02 15:47:26;;;;;;;15.80;10.90;;;;;;;7.68;86.70;98988.58;442854;1273;142674;-61
2022/01/02 15:57:32;;;;;;;19.60;13.00;;;;;;;7.64;87.04;98977.84;445903;1273;142436;-62
2022/01/02 16:07:38;;;;;;;17.50;12.60;;;;;;;7.58;87.55;98944.60;446819;1272;142308;-63
2022/01/02 16:17:43;;;;;;;17.50;9.80;;;;;;;7.55;87.67;98917.10;446915;1271;142557;-63
2022/01/02 16:27:49;;;;;;;14.40;10.00;;;;;;;7.56;88.14;98871.54;446217;1271;142630;-62
2022/01/02 16:37:55;;;;;;;19.10;11.80;;;;;;;7.56;88.41;98852.90;447154;1271;142660;-61
2022/01/02 16:48:01;;;;;;;18.70;11.30;;;;;;;7.58;88.69;98850.19;444257;1271;143136;-62
2022/01/02 16:58:07;;;;;;;12.90;9.20;;;;;;;7.57;88.74;98853.55;443695;1271;142328;-62
2022/01/02 17:08:13;;;;;;;14.90;9.80;;;;;;;7.58;88.91;98835.02;435486;1270;142051;-62
2022/01/02 17:18:19;;;;;;;14.20;8.50;;;;;;;7.55;88.89;98811.20;442294;1273;146483;-61
2022/01/02 17:28:25;;;;;;;10.40;7.40;;;;;;;7.52;89.18;98804.04;444485;1271;141770;-61
2022/01/02 17:38:31;;;;;;;12.40;7.60;;;;;;;7.50;89.50;98776.14;439395;1270;141703;-61
2022/01/02 17:48:37;;;;;;;12.90;8.90;;;;;;;7.47;89.64;98758.94;434131;1271;142764;-62
2022/01/02 17:58:42;;;;;;;13.20;8.80;;;;;;;7.46;89.79;98725.06;446853;1271;144398;-60
2022/01/02 18:08:52;;;;;;;14.50;10.80;;;;;;;7.45;89.78;98694.27;444888;1273;141517;-61
2022/01/02 18:18:58;;;;;;;14.10;10.90;;;;;;;7.47;89.66;98676.36;445865;1273;143736;-61
2022/01/02 18:29:04;;;;;;;23.10;14.10;;;;;;;7.51;89.69;98683.29;446607;1273;141547;-62
2022/01/02 18:39:14;;;;;;;18.50;11.80;;;;;;;7.53;89.65;98656.33;445813;1270;142573;-57
2022/01/02 18:49:20;;;;;;;18.80;12.20;;;;;;;7.48;89.57;98633.63;446641;1271;142375;-72
2022/01/02 18:59:26;;;;;;;19.00;11.90;;;;;;;7.46;89.76;98630.46;442440;1271;142318;-72
2022/01/02 19:09:32;;;;;;;12.90;9.40;;;;;;;7.50;89.68;98611.08;442059;1270;142319;-73
2022/01/02 19:19:38;;;;;;;17.60;10.80;;;;;;;7.53;89.73;98594.63;444024;1270;142544;-74
2022/01/02 19:29:44;;;;;;;16.00;11.50;;;;;;;7.58;89.42;98574.48;434901;1270;144291;-72
2022/01/02 19:39:51;;;;;;;14.10;9.20;;;;;;;7.58;89.30;98564.35;434008;1270;142816;-73
2022/01/02 19:49:57;;;;;;;17.20;10.30;;;;;;;7.57;88.69;98565.98;434856;1270;142589;-75
2022/01/02 20:00:04;;;;;;;12.00;6.50;;;;;;;7.35;88.26;98566.58;435352;1270;141610;-60
2022/01/02 20:10:11;;;;;;;11.30;6.70;;;;;;;7.23;87.89;98562.67;447255;1270;141692;-64
2022/01/02 20:20:19;;;;;;;9.20;5.60;;;;;;;7.18;87.57;98563.39;447350;1269;146298;-63
2022/01/02 20:30:30;;;;;;;10.90;5.20;;;;;;;7.33;87.47;98556.98;446369;1271;142700;-62
2022/01/02 20:40:36;;;;;;;9.30;5.00;;;;;;;7.62;86.78;98558.66;445101;1272;142347;-63
2022/01/02 20:50:45;;;;;;;6.60;4.80;;;;;;;7.75;85.87;98542.61;447431;1270;142324;-63
2022/01/02 21:00:53;;;;;;;5.30;4.40;;;;;;;7.77;85.73;98530.83;446473;1270;142539;-62
2022/01/02 21:10:59;;;;;;;8.40;5.00;;;;;;;8.08;85.18;98529.75;447337;1269;141836;-62
2022/01/02 21:21:05;;;;;;;6.00;3.80;;;;;;;8.23;84.71;98523.09;445997;1273;142964;-63
2022/01/02 21:31:10;;;;;;;6.50;3.20;;;;;;;8.39;84.20;98526.38;434144;1271;141756;-62
2022/01/02 21:41:17;;;;;;;;;;;;;;;8.49;83.84;98526.69;443955;1270;140958;-64
2022/01/02 21:51:24;;;;;;;7.10;4.00;;;;;;;8.52;83.59;98531.52;446852;1270;129152;-63
2022/01/02 22:01:30;;;;;;;5.10;3.50;;;;;;;8.56;83.09;98528.27;445664;1270;144630;-64
2022/01/02 22:11:37;;;;;;;5.80;4.30;;;;;;;8.61;82.88;98525.88;447293;1270;142042;-63
2022/01/02 22:21:46;;;;;;;8.40;4.00;;;;;;;8.63;82.53;98527.10;446505;1270;142043;-63
2022/01/02 22:31:54;;;;;;;4.80;3.60;;;;;;;8.61;82.29;98523.58;447350;1270;142837;-62
2022/01/02 22:42:00;;;;;;;5.90;4.20;;;;;;;8.55;82.22;98533.96;447304;1270;141466;-63
2022/01/02 22:52:09;;;;;;;6.60;4.30;;;;;;;8.52;81.99;98540.30;447337;1270;143374;-63
2022/01/02 23:02:16;;;;;;;3.40;2.60;;;;;;;8.47;81.98;98539.92;447033;1271;142110;-64
2022/01/02 23:12:22;;;;;;;7.10;3.80;;;;;;;8.47;81.69;98542.35;446562;1270;141621;-63
2022/01/02 23:22:28;;;;;;;8.80;4.20;;;;;;;8.49;81.34;98532.48;447417;1270;142899;-62
2022/01/02 23:32:34;;;;;;;7.40;3.10;;;;;;;8.49;81.18;98528.59;447133;1270;144210;-63
2022/01/02 23:42:40;;;;;;;5.90;3.10;;;;;;;8.46;81.16;98521.88;438720;1270;142805;-60
2022/01/02 23:52:51;;;;;;;4.30;2.60;;;;;;;8.29;80.68;98522.48;432798;1270;142886;-60
